Time;durP1;ratioP1;P1;durP2;ratioP2;P2;SDS_P1;SDS_P2;PMS_P1;PMS_P2;Temp;Humidity;BMP_temperature;BMP_pressure;BME280_temperature;BME280_humidity;BME280_pressure;Samples;Min_cycle;Max_cycle;Signal;HPM_P1;HPM_P2
2024/01/03 00:00:58;;;;;;;12.93;2.83;;;;;;;;;;5048044;28;20126;-69
2024/01/03 00:04:03;;;;;;;15.30;2.45;;;;;;;;;;5048360;28;20114;-69
2024/01/03 00:07:07;;;;;;;17.42;3.30;;;;;;;;;;5048254;28;20404;-70
2024/01/03 00:10:40;;;;;;;13.27;2.85;;;13.40;99.90;;;;;;5047859;28;20072;-69
2024/01/03 00:14:05;;;;;;;13.98;2.65;;;13.50;99.90;;;;;;5048084;28;20036;-70
2024/01/03 00:17:10;;;;;;;13.07;2.35;;;13.50;99.90;;;;;;5047858;28;20052;-70
2024/01/03 00:20:15;;;;;;;12.23;2.63;;;;;;;;;;5048057;28;20044;-70
2024/01/03 00:23:19;;;;;;;9.48;2.00;;;;;;;;;;5048220;28;20384;-70
2024/01/03 00:26:24;;;;;;;12.48;2.22;;;;;;;;;;5047967;28;20041;-69
2024/01/03 00:29:28;;;;;;;11.77;2.00;;;;;;;;;;5095140;28;20416;-70
2024/01/03 00:32:33;;;;;;;20.67;5.55;;;13.70;99.90;;;;;;5095474;28;20507;-70
2024/01/03 00:35:38;;;;;;;8.63;1.83;;;;;;;;;;5095109;28;20064;-70
2024/01/03 00:38:42;;;;;;;12.18;2.00;;;;;;;;;;5047597;28;20361;-69
2024/01/03 00:41:47;;;;;;;10.93;2.30;;;;;;;;;;5047628;28;20110;-70
2024/01/03 00:44:51;;;;;;;8.55;1.58;;;;;;;;;;5047374;28;20404;-70
2024/01/03 00:47:55;;;;;;;7.63;1.70;;;;;;;;;;5047388;28;20033;-70
2024/01/03 00:51:00;;;;;;;12.85;2.17;;;;;;;;;;5094719;28;20041;-70
2024/01/03 00:54:04;;;;;;;9.20;1.55;;;;;;;;;;5047517;28;20053;-70
2024/01/03 00:57:08;;;;;;;10.70;1.60;;;;;;;;;;5094776;28;20037;-70
2024/01/03 01:00:13;;;;;;;16.15;2.20;;;;;;;;;;5047569;28;20499;-69
2024/01/03 01:03:17;;;;;;;6.82;1.50;;;14.10;99.90;;;;;;5095321;28;20044;-70
2024/01/03 01:06:21;;;;;;;10.52;1.60;;;;;;;;;;5094806;28;20044;-70
2024/01/03 01:09:26;;;;;;;11.15;1.85;;;;;;;;;;5048947;28;20060;-70
2024/01/03 01:12:30;;;;;;;13.27;1.80;;;;;;;;;;5050709;28;20044;-70
2024/01/03 01:15:35;;;;;;;13.57;1.73;;;;;;;;;;5050550;28;20499;-70
2024/01/03 01:18:40;;;;;;;6.43;1.50;;;;;;;;;;5049989;28;20056;-70
2024/01/03 01:21:44;;;;;;;6.72;1.60;;;;;;;;;;5098012;27;20037;-69
2024/01/03 01:24:48;;;;;;;10.50;1.83;;;;;;;;;;5097922;27;20041;-70
2024/01/03 01:27:52;;;;;;;9.07;1.48;;;;;;;;;;5050018;28;20393;-70
2024/01/03 01:30:57;;;;;;;12.27;2.10;;;;;;;;;;5050224;28;20484;-69
2024/01/03 01:34:01;;;;;;;8.80;1.52;;;;;;;;;;5097811;27;20044;-70
2024/01/03 01:37:05;;;;;;;7.38;1.45;;;;;;;;;;5049976;28;20036;-70
2024/01/03 01:40:10;;;;;;;12.35;1.77;;;14.80;99.90;;;;;;5049762;28;20037;-70
2024/01/03 01:43:16;;;;;;;8.32;1.88;;;;;;;;;;5097910;27;20059;-70
2024/01/03 01:46:20;;;;;;;14.45;1.85;;;;;;;;;;5049898;28;20045;-69
2024/01/03 01:49:24;;;;;;;7.00;1.92;;;;;;;;;;5049692;28;20515;-69
2024/01/03 01:52:28;;;;;;;10.27;2.00;;;;;;;;;;5049983;28;20041;-70
2024/01/03 01:55:35;;;;;;;10.10;1.88;;;14.00;99.90;;;;;;5049660;28;20052;-70
2024/01/03 01:58:41;;;;;;;9.40;1.27;;;;;;;;;;5097746;27;20147;-70
2024/01/03 02:01:45;;;;;;;10.45;1.55;;;;;;;;;;5097497;27;20037;-70
2024/01/03 02:04:50;;;;;;;8.73;1.30;;;;;;;;;;5097368;27;20056;-69
2024/01/03 02:07:54;;;;;;;9.85;1.40;;;;;;;;;;5049647;28;20376;-70
2024/01/03 02:10:59;;;;;;;6.82;1.30;;;;;;;;;;5097542;27;20045;-69
2024/01/03 02:14:03;;;;;;;14.65;1.58;;;;;;;;;;5097471;27;20029;-70
2024/01/03 02:17:07;;;;;;;8.68;1.60;;;;;;;;;;5096825;27;20157;-69
2024/01/03 02:20:12;;;;;;;12.60;1.70;;;14.00;99.90;;;;;;5048627;28;20041;-70
2024/01/03 02:23:18;;;;;;;13.07;2.03;;;;;;;;;;5049535;28;20041;-70
2024/01/03 02:26:23;;;;;;;6.47;1.35;;;;;;;;;;5049162;28;20527;-70
2024/01/03 02:29:27;;;;;;;9.98;1.25;;;;;;;;;;5097057;27;20040;-70
2024/01/03 02:32:34;;;;;;;10.98;1.75;;;;;;;;;;5049188;28;20476;-70
2024/01/03 02:35:38;;;;;;;7.57;1.50;;;;;;;;;;5049308;28;20064;-69
2024/01/03 02:38:48;;;;;;;9.35;1.83;;;14.10;99.90;;;;;;5049279;28;20045;-70
2024/01/03 02:41:52;;;;;;;11.32;1.80;;;;;;;;;;5048946;28;20044;-70
2024/01/03 02:44:59;;;;;;;13.15;2.13;;;;;;;;;;5048881;28;20179;-70
2024/01/03 02:48:03;;;;;;;10.82;2.13;;;;;;;;;;5048770;28;20040;-70
2024/01/03 02:51:08;;;;;;;8.45;2.92;;;;;;;;;;5048759;28;20408;-70
2024/01/03 02:54:12;;;;;;;8.98;1.40;;;;;;;;;;5096355;27;20060;-70
2024/01/03 02:57:16;;;;;;;7.00;1.25;;;;;;;;;;5048971;28;20485;-70
2024/01/03 03:00:21;;;;;;;14.38;1.90;;;;;;;;;;5048742;28;20033;-70
2024/01/03 03:03:25;;;;;;;10.23;1.55;;;;;;;;;;5048928;28;20047;-70
2024/01/03 03:06:29;;;;;;;16.58;2.00;;;;;;;;;;5048822;28;20110;-70
2024/01/03 03:09:33;;;;;;;6.75;1.42;;;;;;;;;;5048722;28;20056;-70
2024/01/03 03:12:38;;;;;;;7.78;1.80;;;;;;;;;;5048621;28;20136;-70
2024/01/03 03:15:42;;;;;;;9.18;1.65;;;;;;;;;;5048509;28;20037;-69
2024/01/03 03:18:46;;;;;;;12.00;2.00;;;;;;;;;;5048332;28;20037;-69
2024/01/03 03:21:50;;;;;;;12.60;1.70;;;;;;;;;;5048524;28;20048;-70
2024/01/03 03:24:55;;;;;;;8.85;1.52;;;;;;;;;;5048163;28;20036;-70
2024/01/03 03:27:59;;;;;;;15.65;1.98;;;;;;;;;;5048328;28;20045;-70
2024/01/03 03:31:04;;;;;;;12.80;1.92;;;;;;;;;;5047037;28;20052;-70
2024/01/03 03:34:08;;;;;;;10.80;1.52;;;;;;;;;;5047991;28;20394;-70
2024/01/03 03:37:12;;;;;;;7.90;1.20;;;;;;;;;;5048290;28;20044;-70
2024/01/03 03:40:17;;;;;;;7.85;1.23;;;;;;;;;;5048368;28;20032;-70
2024/01/03 03:43:30;;;;;;;8.60;1.38;;;13.70;99.90;;;;;;5096463;27;20037;-69
2024/01/03 03:46:34;;;;;;;14.40;2.00;;;;;;;;;;5047841;28;20040;-69
2024/01/03 03:49:38;;;;;;;12.38;1.85;;;;;;;;;;5047838;28;20052;-69
2024/01/03 03:52:42;;;;;;;13.93;2.00;;;;;;;;;;5047884;28;20044;-70
2024/01/03 03:55:47;;;;;;;10.95;2.20;;;;;;;;;;5048217;28;20036;-69
2024/01/03 03:58:51;;;;;;;8.27;1.35;;;;;;;;;;5047952;28;20032;-69
2024/01/03 04:01:55;;;;;;;8.45;1.40;;;;;;;;;;5047865;28;20045;-69
2024/01/03 04:05:00;;;;;;;11.30;1.98;;;;;;;;;;5047774;28;20021;-70
2024/01/03 04:08:04;;;;;;;8.98;1.80;;;;;;;;;;5047949;28;20157;-70
2024/01/03 04:11:08;;;;;;;13.02;1.90;;;;;;;;;;5048004;28;20045;-69
2024/01/03 04:14:13;;;;;;;9.25;1.70;;;;;;;;;;5047854;28;20044;-70
2024/01/03 04:17:18;;;;;;;11.75;1.83;;;12.60;99.90;;;;;;5047490;28;20049;-70
2024/01/03 04:20:22;;;;;;;10.10;1.63;;;;;;;;;;5047817;28;20043;-69
2024/01/03 04:23:29;;;;;;;11.70;2.10;;;15.60;99.90;;;;;;5047762;28;20157;-69
2024/01/03 04:26:34;;;;;;;10.40;1.35;;;;;;;;;;5047662;28;20048;-69
2024/01/03 04:29:38;;;;;;;11.70;1.90;;;;;;;;;;5095009;28;20056;-70
2024/01/03 04:32:42;;;;;;;7.45;2.15;;;;;;;;;;5047633;28;20044;-69
2024/01/03 04:35:47;;;;;;;9.93;2.17;;;;;;;;;;5047256;28;20037;-70
2024/01/03 04:38:51;;;;;;;11.02;1.90;;;;;;;;;;5048018;28;20041;-70
2024/01/03 04:41:55;;;;;;;13.60;2.92;;;;;;;;;;5047298;28;20052;-70
2024/01/03 04:44:59;;;;;;;10.00;1.98;;;;;;;;;;5050771;28;20044;-70
2024/01/03 04:48:04;;;;;;;8.88;2.03;;;;;;;;;;5050972;28;20147;-69
2024/01/03 04:51:09;;;;;;;19.25;2.95;;;;;;;;;;5098701;27;20049;-70
2024/01/03 04:54:14;;;;;;;13.90;2.33;;;;;;;;;;5051031;28;20512;-69
2024/01/03 04:57:18;;;;;;;9.93;2.65;;;;;;;;;;5050524;28;20048;-70
2024/01/03 05:00:22;;;;;;;18.02;3.03;;;;;;;;;;5050819;28;20033;-70
2024/01/03 05:03:26;;;;;;;10.70;3.20;;;;;;;;;;5050634;28;20365;-70
2024/01/03 05:06:31;;;;;;;22.40;4.45;;;;;;;;;;5050768;28;20044;-70
2024/01/03 05:09:35;;;;;;;13.07;3.92;;;;;;;;;;5050519;28;20044;-70
2024/01/03 05:12:39;;;;;;;19.30;4.20;;;;;;;;;;5050363;28;20048;-70
2024/01/03 05:15:44;;;;;;;13.98;3.63;;;;;;;;;;5050322;28;20044;-70
2024/01/03 05:18:49;;;;;;;16.02;3.25;;;;;;;;;;5050340;28;20052;-70
2024/01/03 05:21:53;;;;;;;13.50;3.75;;;;;;;;;;5050522;28;20044;-70
2024/01/03 05:24:58;;;;;;;14.48;3.83;;;;;;;;;;5050287;28;20051;-70
2024/01/03 05:28:02;;;;;;;10.63;3.38;;;;;;;;;;5049735;28;20036;-70
2024/01/03 05:31:06;;;;;;;15.88;3.60;;;;;;;;;;5049885;28;20048;-70
2024/01/03 05:34:11;;;;;;;18.27;3.97;;;;;;;;;;5050102;28;20503;-69
2024/01/03 05:37:15;;;;;;;14.13;4.20;;;;;;;;;;5050155;28;20040;-70
2024/01/03 05:40:19;;;;;;;15.77;4.50;;;;;;;;;;5050078;28;20040;-70
2024/01/03 05:43:24;;;;;;;17.92;4.47;;;;;;;;;;5049940;28;20044;-70
2024/01/03 05:46:28;;;;;;;19.13;4.68;;;;;;;;;;5049800;28;20032;-70
2024/01/03 05:49:34;;;;;;;19.40;4.55;;;;;;;;;;5049799;28;20040;-69
2024/01/03 05:52:38;;;;;;;13.50;4.45;;;;;;;;;;5049761;28;20048;-69
2024/01/03 05:55:42;;;;;;;14.60;4.25;;;;;;;;;;5049007;28;20044;-69
2024/01/03 05:58:47;;;;;;;14.00;4.13;;;;;;;;;;5050099;28;20047;-70
2024/01/03 06:01:51;;;;;;;17.77;3.80;;;;;;;;;;5049846;28;20365;-70
2024/01/03 06:04:55;;;;;;;17.35;3.92;;;;;;;;;;5049574;28;20044;-69
2024/01/03 06:08:00;;;;;;;17.92;3.95;;;;;;;;;;5049624;28;20048;-69
2024/01/03 06:11:04;;;;;;;12.88;3.88;;;;;;;;;;5049351;28;20056;-68
2024/01/03 06:14:09;;;;;;;15.35;3.40;;;;;;;;;;5049715;28;20048;-70
2024/01/03 06:17:13;;;;;;;16.65;3.65;;;;;;;;;;5097100;27;20056;-70
2024/01/03 06:20:18;;;;;;;14.77;3.95;;;;;;;;;;5049164;28;20412;-70
2024/01/03 06:23:24;;;;;;;16.83;4.90;;;;;;;;;;5049224;28;20048;-70
2024/01/03 06:26:30;;;;;;;14.00;4.05;;;;;;;;;;5049458;28;20067;-70
2024/01/03 06:29:34;;;;;;;12.05;3.75;;;;;;;;;;5049163;28;20044;-70
2024/01/03 06:32:38;;;;;;;14.90;3.67;;;;;;;;;;5049377;28;20400;-70
2024/01/03 06:35:43;;;;;;;10.73;4.45;;;;;;;;;;5053980;28;20044;-70
2024/01/03 06:38:48;;;;;;;12.13;3.53;;;;;;;;;;5049128;28;20048;-70
2024/01/03 06:41:52;;;;;;;15.82;4.05;;;;;;;;;;5049269;28;20048;-70
2024/01/03 06:44:57;;;;;;;15.25;4.40;;;;;;;;;;5049262;28;20052;-69
2024/01/03 06:48:02;;;;;;;17.27;4.03;;;13.50;99.90;;;;;;5048926;28;20044;-70
2024/01/03 06:51:06;;;;;;;12.50;3.90;;;;;;;;;;5048793;28;20052;-63
2024/01/03 06:54:10;;;;;;;11.93;4.47;;;;;;;;;;5048984;28;20499;-63
2024/01/03 06:57:15;;;;;;;15.05;4.90;;;;;;;;;;5048878;28;20397;-63
2024/01/03 07:00:19;;;;;;;14.82;4.93;;;;;;;;;;5048847;28;20388;-63
2024/01/03 07:03:23;;;;;;;18.17;5.28;;;;;;;;;;5048828;28;20063;-63
2024/01/03 07:06:28;;;;;;;15.18;5.82;;;;;;;;;;5048211;28;20052;-63
2024/01/03 07:09:32;;;;;;;20.83;6.47;;;;;;;;;;5048559;28;20044;-63
2024/01/03 07:12:38;;;;;;;20.92;7.47;;;;;;;;;;5048371;28;20055;-63
2024/01/03 07:15:44;;;;;;;18.83;7.07;;;;;;;;;;5048604;28;20052;-63
2024/01/03 07:18:48;;;;;;;25.25;8.30;;;;;;;;;;5048261;28;20492;-64
2024/01/03 07:21:55;;;;;;;79.13;35.95;;;13.20;99.90;;;;;;5048249;28;20064;-63
2024/01/03 07:25:00;;;;;;;77.20;34.53;;;;;;;;;;5048298;28;20040;-63
2024/01/03 07:28:04;;;;;;;31.25;12.95;;;;;;;;;;5048563;28;20504;-63
2024/01/03 07:31:08;;;;;;;40.92;17.30;;;;;;;;;;5048023;28;20412;-63
2024/01/03 07:34:12;;;;;;;66.00;26.90;;;;;;;;;;5048351;28;20048;-63
2024/01/03 07:37:17;;;;;;;104.05;45.53;;;;;;;;;;5047960;28;20109;-64
2024/01/03 07:40:21;;;;;;;122.35;57.05;;;;;;;;;;5048120;28;20044;-64
2024/01/03 07:43:26;;;;;;;108.28;48.22;;;15.00;99.90;;;;;;5048347;28;20051;-64
2024/01/03 07:46:30;;;;;;;121.28;56.20;;;;;;;;;;5047859;28;20507;-64
2024/01/03 07:49:36;;;;;;;102.35;48.42;;;15.00;99.90;;;;;;5048073;28;20068;-64
2024/01/03 07:52:43;;;;;;;63.20;32.45;;;12.10;99.90;;;;;;5048085;28;20110;-65
2024/01/03 07:55:48;;;;;;;66.75;34.67;;;;;;;;;;5047738;28;20114;-65
2024/01/03 07:58:53;;;;;;;79.95;37.60;;;;;;;;;;5048013;28;20388;-65
2024/01/03 08:01:57;;;;;;;59.15;24.55;;;;;;;;;;5047475;28;20623;-64
2024/01/03 08:05:03;;;;;;;51.53;19.40;;;;;;;;;;5047728;28;20044;-65
2024/01/03 08:08:07;;;;;;;50.10;15.07;;;;;;;;;;5047751;28;20468;-64
2024/01/03 08:11:11;;;;;;;40.15;14.15;;;;;;;;;;5095261;27;20055;-64
2024/01/03 08:14:16;;;;;;;47.53;14.30;;;;;;;;;;5047589;28;20056;-64
2024/01/03 08:17:20;;;;;;;32.35;11.07;;;;;;;;;;5046716;28;20048;-64
2024/01/03 08:20:24;;;;;;;30.23;10.95;;;;;;;;;;5047680;28;20353;-63
2024/01/03 08:23:28;;;;;;;30.90;10.45;;;;;;;;;;5047964;28;20401;-64
2024/01/03 08:26:33;;;;;;;33.90;12.90;;;;;;;;;;5047727;28;20040;-64
2024/01/03 08:29:39;;;;;;;28.60;11.65;;;;;;;;;;5047862;28;20048;-63
2024/01/03 08:32:44;;;;;;;32.80;11.57;;;;;;;;;;5047722;28;20052;-63
2024/01/03 08:35:48;;;;;;;25.88;10.75;;;;;;;;;;5095291;28;20044;-63
2024/01/03 08:38:53;;;;;;;25.90;12.15;;;;;;;;;;5047712;28;20044;-64
2024/01/03 08:41:57;;;;;;;34.97;13.13;;;;;;;;;;5047484;28;20047;-65
2024/01/03 08:45:01;;;;;;;39.38;14.43;;;;;;;;;;5047391;28;20044;-66
2024/01/03 08:48:06;;;;;;;34.03;12.18;;;;;;;;;;5095418;28;20048;-64
2024/01/03 08:51:14;;;;;;;34.42;12.65;;;13.60;99.90;;;;;;5094740;28;20409;-64
2024/01/03 08:54:18;;;;;;;34.88;12.00;;;;;;;;;;5047582;28;20052;-66
2024/01/03 08:57:22;;;;;;;27.90;12.18;;;;;;;;;;5095016;28;20500;-64
2024/01/03 09:00:27;;;;;;;29.08;11.88;;;;;;;;;;5047372;28;20060;-64
2024/01/03 09:03:31;;;;;;;17.08;9.07;;;;;;;;;;5047228;28;20048;-66
2024/01/03 09:06:38;;;;;;;20.85;8.85;;;;;;;;;;5047332;28;20044;-65
2024/01/03 09:09:42;;;;;;;18.08;7.28;;;;;;;;;;5047105;28;20058;-65
2024/01/03 09:12:46;;;;;;;19.42;8.32;;;;;;;;;;5047302;28;20056;-65
2024/01/03 09:15:51;;;;;;;12.60;6.30;;;;;;;;;;5047295;28;20044;-66
2024/01/03 09:18:55;;;;;;;10.32;5.63;;;;;;;;;;5046869;28;20060;-66
2024/01/03 09:22:00;;;;;;;15.70;6.50;;;;;;;;;;5047196;28;20052;-66
2024/01/03 09:25:04;;;;;;;23.02;8.45;;;15.80;99.90;;;;;;5047021;28;20373;-66
2024/01/03 09:28:10;;;;;;;15.18;6.68;;;;;;;;;;5046981;28;20408;-66
2024/01/03 09:31:15;;;;;;;11.15;6.05;;;;;;;;;;5049919;28;20071;-66
2024/01/03 09:34:19;;;;;;;15.50;6.25;;;;;;;;;;5050312;28;20475;-66
2024/01/03 09:37:23;;;;;;;13.57;5.80;;;;;;;;;;5050170;28;20047;-65
2024/01/03 09:40:28;;;;;;;12.23;3.90;;;;;;;;;;5050278;28;20052;-65
2024/01/03 09:43:33;;;;;;;11.82;3.58;;;;;;;;;;5050105;28;20155;-65
2024/01/03 09:46:37;;;;;;;16.40;3.97;;;;;;;;;;5050317;28;20056;-65
2024/01/03 09:49:42;;;;;;;5.00;3.17;;;;;;;;;;5049822;28;20051;-65
2024/01/03 09:52:46;;;;;;;13.18;3.33;;;;;;;;;;5049905;28;20040;-65
2024/01/03 09:55:50;;;;;;;10.80;3.55;;;;;;;;;;5049931;28;20044;-65
2024/01/03 09:58:55;;;;;;;17.70;4.75;;;;;;;;;;5049843;28;20048;-65
2024/01/03 10:01:59;;;;;;;13.20;3.70;;;;;;;;;;5049920;28;20503;-65
2024/01/03 10:05:06;;;;;;;9.00;2.78;;;16.70;99.90;;;;;;5049671;28;20044;-65
2024/01/03 10:08:17;;;;;;;25.42;4.10;;;16.60;99.90;;;;;;5049931;28;20067;-65
2024/01/03 10:11:22;;;;;;;16.30;3.13;;;;;;;;;;5049838;28;20056;-66
2024/01/03 10:14:29;;;;;;;21.63;5.68;;;;;;;;;;5049562;28;20057;-65
2024/01/03 10:17:33;;;;;;;21.00;6.82;;;;;;;;;;5049282;28;20060;-65
2024/01/03 10:20:39;;;;;;;12.55;3.17;;;;;;;;;;5049811;28;20052;-64
2024/01/03 10:23:44;;;;;;;19.88;3.85;;;;;;;;;;5049626;28;20048;-64
2024/01/03 10:26:49;;;;;;;17.77;3.20;;;;;;;;;;5049457;28;20063;-64
2024/01/03 10:29:53;;;;;;;13.80;3.25;;;;;;;;;;5049555;28;20048;-65
2024/01/03 10:33:05;;;;;;;22.17;4.32;;;;;;;;;;5049375;28;20079;-65
2024/01/03 10:36:10;;;;;;;27.08;3.90;;;;;;;;;;5049011;28;20040;-65
2024/01/03 10:39:16;;;;;;;18.27;3.47;;;;;;;;;;5049112;28;20393;-65
2024/01/03 10:42:22;;;;;;;17.95;3.53;;;;;;;;;;5096337;27;20495;-65
2024/01/03 10:45:26;;;;;;;19.38;3.10;;;;;;;;;;5048885;28;20044;-66
2024/01/03 10:48:32;;;;;;;16.05;3.67;;;;;;;;;;5048958;28;20040;-65
2024/01/03 10:51:42;;;;;;;17.33;3.15;;;17.50;99.90;;;;;;5048997;28;20059;-64
2024/01/03 10:54:52;;;;;;;22.67;3.95;;;18.00;99.90;;;;;;5048976;28;20040;-64
2024/01/03 10:57:58;;;;;;;25.63;5.63;;;;;;;;;;5048678;28;20480;-63
2024/01/03 11:01:28;;;;;;;42.60;11.73;;;16.20;99.90;;;;;;5047254;28;20044;-65
2024/01/03 11:04:33;;;;;;;36.05;10.23;;;;;;;;;;5048529;28;20051;-64
2024/01/03 11:07:50;;;;;;;42.75;8.63;;;;;;;;;;5048495;28;20341;-64
2024/01/03 11:10:54;;;;;;;37.72;8.02;;;;;;;;;;5048277;28;20059;-64
2024/01/03 11:13:59;;;;;;;24.63;7.32;;;;;;;;;;5048407;28;20040;-65
2024/01/03 11:17:06;;;;;;;19.95;3.78;;;;;;;;;;5048515;28;20066;-64
2024/01/03 11:20:13;;;;;;;16.92;3.65;;;;;;;;;;5048801;28;20044;-65
2024/01/03 11:23:31;;;;;;;21.88;4.15;;;;;;;;;;5048649;28;20052;-65
2024/01/03 11:26:55;;;;;;;18.35;3.38;;;16.50;99.90;;;;;;5048845;28;20040;-63
2024/01/03 11:29:58;;;;;;;14.15;3.65;;;;;;;;;;5048515;28;20133;-63
2024/01/03 11:33:24;;;;;;;19.27;3.83;;;;;;;;;;5048465;28;20047;-64
2024/01/03 11:36:44;;;;;;;20.70;4.03;;;;;;;;;;5048422;28;20044;-64
2024/01/03 11:39:53;;;;;;;17.98;3.05;;;16.60;99.90;;;;;;5048288;28;20052;-64
2024/01/03 11:42:58;;;;;;;19.88;3.05;;;;;;;;;;5048190;28;20056;-65
2024/01/03 11:46:06;;;;;;;26.88;4.50;;;;;;;;;;5048201;28;20503;-65
2024/01/03 11:49:10;;;;;;;30.52;4.30;;;;;;;;;;5048357;28;20499;-65
2024/01/03 11:52:14;;;;;;;30.42;5.25;;;;;;;;;;5046934;28;20051;-65
2024/01/03 11:55:19;;;;;;;14.38;2.88;;;;;;;;;;5096023;27;20483;-65
2024/01/03 11:58:23;;;;;;;32.13;4.93;;;;;;;;;;5048222;28;20515;-67
2024/01/03 12:01:27;;;;;;;20.75;3.15;;;;;;;;;;5047963;28;20052;-66
2024/01/03 12:04:32;;;;;;;17.90;3.92;;;;;;;;;;5047719;28;20495;-66
2024/01/03 12:07:37;;;;;;;19.23;3.50;;;;;;;;;;5048040;28;20535;-64
2024/01/03 12:10:41;;;;;;;25.50;3.55;;;;;;;;;;5047815;28;20059;-65
2024/01/03 12:13:50;;;;;;;21.95;3.13;;;;;;;;;;5048000;28;20444;-65
2024/01/03 12:16:54;;;;;;;19.65;3.28;;;;;;;;;;5047495;28;20048;-65
2024/01/03 12:20:13;;;;;;;32.80;4.72;;;18.20;99.90;;;;;;5047443;28;20048;-66
2024/01/03 12:23:18;;;;;;;19.65;4.40;;;;;;;;;;5048097;28;20044;-66
2024/01/03 12:26:22;;;;;;;25.00;4.38;;;;;;;;;;5047685;28;20036;-66
2024/01/03 12:29:26;;;;;;;26.85;3.50;;;;;;;;;;5047823;28;20409;-64
2024/01/03 12:32:32;;;;;;;27.98;3.85;;;;;;;;;;5047656;28;20060;-65
2024/01/03 12:35:37;;;;;;;18.40;3.22;;;;;;;;;;5047590;28;20040;-64
2024/01/03 12:38:41;;;;;;;23.20;4.85;;;;;;;;;;5095354;28;20059;-65
2024/01/03 12:41:46;;;;;;;24.85;4.28;;;;;;;;;;5047815;28;20484;-65
2024/01/03 12:44:50;;;;;;;22.45;3.85;;;;;;;;;;5094851;28;20040;-65
2024/01/03 12:47:54;;;;;;;24.00;4.38;;;;;;;;;;5047537;28;20048;-66
2024/01/03 12:50:59;;;;;;;15.32;3.25;;;;;;;;;;5047354;28;20048;-65
2024/01/03 12:54:03;;;;;;;19.40;3.08;;;;;;;;;;5047866;28;20503;-64
2024/01/03 12:57:07;;;;;;;19.77;4.13;;;;;;;;;;5047500;28;20044;-64
2024/01/03 13:00:12;;;;;;;15.73;2.92;;;;;;;;;;5047595;28;20040;-64
2024/01/03 13:03:20;;;;;;;16.83;3.55;;;;;;;;;;5047557;28;20036;-65
2024/01/03 13:06:25;;;;;;;23.08;4.25;;;;;;;;;;5051025;28;20052;-65
2024/01/03 13:09:29;;;;;;;28.20;3.97;;;;;;;;;;5050523;28;20047;-65
2024/01/03 13:12:33;;;;;;;25.42;4.55;;;;;;;;;;5050809;28;20055;-64
2024/01/03 13:15:37;;;;;;;17.40;3.30;;;;;;;;;;5050773;28;20084;-64
2024/01/03 13:18:42;;;;;;;26.92;3.65;;;;;;;;;;5098481;27;20400;-64
2024/01/03 13:21:46;;;;;;;23.92;4.30;;;;;;;;;;5050672;28;20040;-64
2024/01/03 13:24:50;;;;;;;18.77;3.35;;;;;;;;;;5050978;28;20048;-64
2024/01/03 13:27:54;;;;;;;23.80;4.45;;;;;;;;;;5051076;28;20044;-64
2024/01/03 13:31:00;;;;;;;16.10;3.72;;;;;;;;;;5053582;28;20515;-64
2024/01/03 13:34:04;;;;;;;19.42;3.25;;;;;;;;;;5050384;28;20044;-64
2024/01/03 13:37:09;;;;;;;20.27;4.00;;;;;;;;;;5051279;28;20056;-64
2024/01/03 13:40:13;;;;;;;24.80;4.75;;;;;;;;;;5050333;28;20369;-64
2024/01/03 13:43:17;;;;;;;18.90;4.13;;;;;;;;;;5050534;28;20044;-64
2024/01/03 13:46:21;;;;;;;21.35;3.70;;;;;;;;;;5050315;28;20044;-64
2024/01/03 13:49:28;;;;;;;15.63;4.13;;;;;;;;;;5050440;28;20071;-64
2024/01/03 13:52:33;;;;;;;20.73;3.20;;;16.40;99.90;;;;;;5050306;28;20063;-64
2024/01/03 13:55:38;;;;;;;29.20;3.78;;;;;;;;;;5050123;28;20405;-64
2024/01/03 13:58:46;;;;;;;21.92;4.03;;;;;;;;;;5049994;28;20048;-64
2024/01/03 14:01:51;;;;;;;21.05;3.83;;;;;;;;;;5050249;28;20384;-64
2024/01/03 14:04:55;;;;;;;22.13;3.47;;;;;;;;;;5050004;28;20495;-64
2024/01/03 14:08:00;;;;;;;14.98;3.40;;;;;;;;;;5097779;27;20052;-64
2024/01/03 14:11:04;;;;;;;30.23;3.90;;;;;;;;;;5049829;28;20060;-64
2024/01/03 14:14:09;;;;;;;13.77;3.85;;;;;;;;;;5050112;28;20048;-64
2024/01/03 14:17:13;;;;;;;27.88;5.47;;;;;;;;;;5049054;28;20048;-64
2024/01/03 14:20:17;;;;;;;18.50;3.88;;;;;;;;;;5049738;28;20055;-64
2024/01/03 14:23:22;;;;;;;16.30;4.40;;;;;;;;;;5097358;27;20051;-64
2024/01/03 14:26:29;;;;;;;18.15;3.60;;;;;;;;;;5049411;28;20040;-64
2024/01/03 14:29:33;;;;;;;22.25;3.50;;;;;;;;;;5049472;28;20077;-64
2024/01/03 14:32:44;;;;;;;15.63;3.20;;;;;;;;;;5049420;28;20082;-64
2024/01/03 14:35:48;;;;;;;24.55;3.90;;;;;;;;;;5049352;28;20036;-64
2024/01/03 14:38:53;;;;;;;12.50;3.78;;;;;;;;;;5049694;28;20040;-63
2024/01/03 14:41:58;;;;;;;20.38;3.92;;;;;;;;;;5049470;28;20035;-64
2024/01/03 14:45:03;;;;;;;21.02;3.92;;;;;;;;;;5049498;28;20393;-63
2024/01/03 14:48:07;;;;;;;23.10;3.95;;;;;;;;;;5049170;28;20044;-64
2024/01/03 14:51:12;;;;;;;17.42;3.17;;;;;;;;;;5049234;28;20508;-64
2024/01/03 14:54:17;;;;;;;16.92;3.08;;;;;;;;;;5049043;28;20044;-64
2024/01/03 14:57:22;;;;;;;17.52;3.65;;;;;;;;;;5048955;28;20051;-63
2024/01/03 15:00:27;;;;;;;24.00;4.70;;;;;;;;;;5049330;28;20059;-64
2024/01/03 15:03:32;;;;;;;28.15;4.60;;;;;;;;;;5049200;28;20060;-64
2024/01/03 15:06:36;;;;;;;22.70;5.25;;;;;;;;;;5048822;28;20048;-64
2024/01/03 15:09:40;;;;;;;14.45;3.15;;;;;;;;;;5048642;28;20392;-63
2024/01/03 15:12:45;;;;;;;16.23;3.58;;;;;;;;;;5048818;28;20397;-63
2024/01/03 15:15:50;;;;;;;20.48;4.28;;;;;;;;;;5048834;28;20048;-64
2024/01/03 15:18:54;;;;;;;23.33;4.70;;;;;;;;;;5048552;28;20056;-63
2024/01/03 15:22:09;;;;;;;43.85;5.50;;;;;;;;;;5048853;28;20051;-64
2024/01/03 15:25:13;;;;;;;30.55;4.65;;;;;;;;;;5048586;28;20392;-64
2024/01/03 15:28:18;;;;;;;21.40;4.50;;;;;;;;;;5095451;27;20051;-66
2024/01/03 15:31:23;;;;;;;30.92;5.22;;;;;;;;;;5096102;27;20507;-65
2024/01/03 15:34:28;;;;;;;42.53;5.47;;;;;;;;;;5048490;28;20048;-66
2024/01/03 15:37:35;;;;;;;31.33;5.85;;;;;;;;;;5048347;28;20648;-65
2024/01/03 15:40:39;;;;;;;40.35;11.15;;;;;;;;;;5048481;28;20389;-65
2024/01/03 15:43:44;;;;;;;34.60;7.43;;;;;;;;;;5048492;28;20040;-65
2024/01/03 15:46:48;;;;;;;29.02;5.93;;;;;;;;;;5048292;28;20052;-65
2024/01/03 15:49:59;;;;;;;21.13;5.22;;;;;;;;;;5093894;27;20043;-66
2024/01/03 15:53:03;;;;;;;31.80;6.82;;;;;;;;;;5048520;28;20055;-65
2024/01/03 15:56:07;;;;;;;36.75;9.45;;;;;;;;;;5095351;27;20393;-69
2024/01/03 15:59:13;;;;;;;42.08;9.85;;;;;;;;;;5048282;28;20055;-68
2024/01/03 16:02:18;;;;;;;45.72;11.75;;;;;;;;;;5048205;28;20044;-67
2024/01/03 16:05:22;;;;;;;42.30;11.88;;;;;;;;;;5047956;28;20512;-67
2024/01/03 16:08:27;;;;;;;50.28;9.77;;;;;;;;;;5048021;28;20044;-66
2024/01/03 16:11:31;;;;;;;46.13;9.75;;;;;;;;;;5048049;28;20403;-66
2024/01/03 16:14:36;;;;;;;46.72;10.02;;;;;;;;;;5048285;28;20048;-67
2024/01/03 16:17:40;;;;;;;40.13;8.25;;;;;;;;;;5047723;28;20515;-65
2024/01/03 16:20:44;;;;;;;58.20;10.23;;;;;;;;;;5047989;28;20052;-66
2024/01/03 16:23:49;;;;;;;61.42;10.68;;;;;;;;;;5047557;28;20067;-66
2024/01/03 16:26:55;;;;;;;48.90;10.95;;;;;;;;;;5047713;28;20428;-67
2024/01/03 16:29:59;;;;;;;47.38;10.60;;;;;;;;;;5047406;28;20397;-66
2024/01/03 16:33:06;;;;;;;33.33;9.88;;;;;;;;;;5047503;28;20052;-64
2024/01/03 16:36:10;;;;;;;46.17;11.70;;;;;;;;;;5095114;28;20032;-63
2024/01/03 16:39:16;;;;;;;49.00;13.27;;;;;;;;;;5049366;28;20044;-66
2024/01/03 16:42:20;;;;;;;45.55;12.18;;;;;;;;;;5051559;28;20048;-66
2024/01/03 16:45:25;;;;;;;49.95;11.25;;;;;;;;;;5050961;28;20048;-66
2024/01/03 16:48:29;;;;;;;40.08;11.68;;;;;;;;;;5099039;27;20040;-66
2024/01/03 16:51:33;;;;;;;42.28;11.50;;;;;;;;;;5051071;28;20059;-68
2024/01/03 16:54:37;;;;;;;45.60;12.35;;;;;;;;;;5051053;28;20052;-65
2024/01/03 16:57:42;;;;;;;42.17;13.25;;;;;;;;;;5049828;28;20419;-66
2024/01/03 17:00:52;;;;;;;52.78;18.17;;;15.20;99.90;;;;;;5098734;27;20056;-64
2024/01/03 17:03:57;;;;;;;82.17;39.30;;;;;;;;;;5050454;28;20044;-64
2024/01/03 17:07:02;;;;;;;66.50;28.48;;;;;;;;;;5050598;28;20040;-65
2024/01/03 17:10:07;;;;;;;81.20;34.80;;;;;;;;;;5050866;28;20114;-66
2024/01/03 17:13:12;;;;;;;96.75;41.40;;;;;;;;;;5050758;28;20048;-65
2024/01/03 17:16:17;;;;;;;105.40;50.45;;;;;;;;;;5050833;28;20036;-66
2024/01/03 17:19:27;;;;;;;89.60;38.22;;;;;;;;;;5010392;28;20057;-63
2024/01/03 17:22:31;;;;;;;64.32;25.83;;;;;;;;;;5009867;28;20049;-64
2024/01/03 17:25:36;;;;;;;65.60;25.27;;;;;;;;;;5010820;28;20045;-64
2024/01/03 17:28:40;;;;;;;53.65;21.63;;;;;;;;;;5010758;28;20045;-69
2024/01/03 17:31:44;;;;;;;57.15;20.50;;;;;;;;;;5010846;28;20073;-66
2024/01/03 17:34:51;;;;;;;55.70;18.67;;;;;;;;;;5010902;28;20041;-66
2024/01/03 17:37:56;;;;;;;55.50;20.45;;;;;;;;;;5010921;28;20041;-66
2024/01/03 17:41:07;;;;;;;52.15;16.42;;;;;;;;;;5010428;28;20063;-66
2024/01/03 17:44:12;;;;;;;53.55;15.52;;;;;;;;;;5010695;28;20073;-66
2024/01/03 17:47:17;;;;;;;52.85;16.77;;;;;;;;;;5009680;28;20063;-65
2024/01/03 17:50:21;;;;;;;54.65;16.52;;;;;;;;;;5009369;28;20041;-65
2024/01/03 17:53:26;;;;;;;44.15;15.77;;;13.90;99.90;;;;;;5009052;28;20049;-65
2024/01/03 17:56:30;;;;;;;37.42;16.95;;;;;;;;;;5010534;28;20060;-71
2024/01/03 17:59:35;;;;;;;64.60;20.95;;;;;;;;;;5009842;28;20049;-71